Prevelis — SYDL — position and weather

sailwx.info

Track history (hours):
 
Tides and Currents Weather Stations Pressure Air Temp Water Temp Dewpoint Dewpoint Depression Visibility Wind Speed Wind Dir Waves Ship Positions

Prevelis

Last reported at 2014-Jul-23 20:21 UTC. Time now 2014-Jul-24 13:04 UTC.
Position N 36°11' E 027°36'.

Length 143 m; draft 5.5 m.

Type: Passenger vessel. MMSI: 239297000.

Date/timePositionNaut miles runAvg speedWind from/ knotsBaromVisibWave heightAir tempDewpointWater temp
2014-Jul-23 20:21N 36°11' E 027°36'1518.8
2014-Jul-23 19:33N 35°59' E 027°25'6510.2
2014-Jul-23 13:13N 35°21' E 026°20'3212.1
2014-Jul-23 10:32N 35°22' E 025°41'26 8.2
2014-Jul-23 07:20N 35°21' E 025°09'1215.1
2014-Jul-23 06:33N 35°22' E 025°23'1918.6
2014-Jul-23 05:33N 35°22' E 025°46'2411.9
2014-Jul-23 03:33N 35°20' E 026°15'8810.9
2014-Jul-22 19:25N 36°14' E 027°41'5 0.6
2014-Jul-22 12:19N 36°11' E 027°37'81 8.2
2014-Jul-22 02:24N 36°09' E 025°57'1612.5
2014-Jul-22 01:08N 36°21' E 025°43'1418.4
2014-Jul-22 00:24N 36°19' E 025°26'5 5.5
2014-Jul-21 23:32N 36°23' E 025°26'2 1.7
2014-Jul-21 22:33N 36°23' E 025°24'1817.8
2014-Jul-21 21:33N 36°29' E 025°03'1817.9
2014-Jul-21 20:33N 36°41' E 024°47'518.2
2014-Jul-21 20:15N 36°46' E 024°43'1317.7
2014-Jul-21 19:30N 36°56' E 024°32'5717.9
2014-Jul-21 16:19N 37°38' E 023°44'1317.3
2014-Jul-21 15:33N 37°50' E 023°37'7 6.8
2014-Jul-21 14:33N 37°57' E 023°38'0 0.0
2014-Jul-21 13:33N 37°57' E 023°38'0 0.0
2014-Jul-21 12:33N 37°57' E 023°38'0 0.0
2014-Jul-21 11:33N 37°57' E 023°38'0 0.0
2014-Jul-21 10:33N 37°57' E 023°38'0 0.0
2014-Jul-21 09:34N 37°57' E 023°38'0 0.0
2014-Jul-21 08:33N 37°57' E 023°38'0 0.0
2014-Jul-21 07:33N 37°57' E 023°38'9 8.9
2014-Jul-21 06:33N 37°48' E 023°41'5418.0
2014-Jul-21 03:33N 37°00' E 024°13'2016.7
2014-Jul-21 02:20N 36°43' E 024°27'4 4.8
2014-Jul-21 01:33N 36°47' E 024°25'1817.3
2014-Jul-21 00:29N 36°39' E 024°46'1718.1
2014-Jul-20 23:33N 36°30' E 025°04'1717.0
2014-Jul-20 22:32N 36°23' E 025°23'2 1.2
2014-Jul-20 21:09N 36°23' E 025°25'5 7.8
2014-Jul-20 20:32N 36°19' E 025°27'1410.2
2014-Jul-20 19:09N 36°20' E 025°45'1016.5
2014-Jul-20 18:33N 36°12' E 025°39'1817.6
2014-Jul-20 17:33N 35°55' E 025°32'1918.1
2014-Jul-20 16:30N 35°38' E 025°22'104 4.9
2014-Jul-19 19:21N 36°01' E 027°27'9110.0
2014-Jul-19 10:16N 35°22' E 025°46'1318.4
2014-Jul-19 09:32N 35°22' E 025°29'1716.9
2014-Jul-19 08:32N 35°21' E 025°09'0 0.1
2014-Jul-19 07:33N 35°21' E 025°09'1817.6
2014-Jul-19 06:32N 35°35' E 025°22'1818.4
2014-Jul-19 05:33N 35°52' E 025°30'1918.5
2014-Jul-19 04:33N 36°09' E 025°39'1311.6
2014-Jul-19 03:28N 36°21' E 025°44'1718.2
2014-Jul-19 02:31N 36°20' E 025°23'4 3.5
2014-Jul-19 01:18N 36°23' E 025°26'0 0.1
2014-Jul-19 00:32N 36°23' E 025°26'1717.0
2014-Jul-18 23:34N 36°28' E 025°06'2018.1
2014-Jul-18 22:29N 36°38' E 024°45'1617.9
2014-Jul-18 21:33N 36°47' E 024°28'4 4.2
2014-Jul-18 20:33N 36°43' E 024°27'10 9.5
2014-Jul-18 19:28N 36°51' E 024°18'1718.1
2014-Jul-18 18:33N 37°05' E 024°08'3818.2
2014-Jul-18 16:26N 37°38' E 023°44'1517.2
2014-Jul-18 15:33N 37°53' E 023°37'4 4.4
2014-Jul-18 14:33N 37°57' E 023°38'0 0.0
2014-Jul-18 13:33N 37°57' E 023°38'0 0.0
2014-Jul-18 12:33N 37°57' E 023°38'0 0.0
2014-Jul-18 11:33N 37°57' E 023°38'0 0.0
2014-Jul-18 10:33N 37°57' E 023°38'0 0.0
2014-Jul-18 09:33N 37°57' E 023°38'0 0.0
2014-Jul-18 07:23N 37°57' E 023°38'2 0.8
2014-Jul-18 04:33N 37°55' E 023°37'6018.0
2014-Jul-18 01:13N 37°07' E 024°23'1818.5
2014-Jul-18 00:15N 36°54' E 024°39'1318.7
2014-Jul-17 23:33N 36°45' E 024°50'1918.4
2014-Jul-17 22:32N 36°33' E 025°08'1717.0
2014-Jul-17 21:32N 36°23' E 025°26'3 3.6
2014-Jul-17 20:33N 36°22' E 025°22'1515.4
2014-Jul-17 19:34N 36°20' E 025°40'5 4.8
2014-Jul-17 18:34N 36°19' E 025°46'1918.1
2014-Jul-17 17:29N 36°05' E 026°03'  
2014-Jul-15 02:31N 36°08' E 025°59'1713.0
2014-Jul-15 01:12N 36°21' E 025°45'1118.0
2014-Jul-15 00:33N 36°19' E 025°31'6 5.8
2014-Jul-14 23:32N 36°23' E 025°26'0 0.1
2014-Jul-14 22:33N 36°23' E 025°26'1615.9
2014-Jul-14 21:33N 36°31' E 025°08'1818.0
2014-Jul-14 20:33N 36°43' E 024°52'1818.0
2014-Jul-14 19:33N 36°55' E 024°35'5518.2
2014-Jul-14 16:33N 37°36' E 023°49'1717.3
2014-Jul-14 15:34N 37°50' E 023°37'7 7.2
2014-Jul-14 14:34N 37°57' E 023°38'0 0.0
2014-Jul-14 13:33N 37°57' E 023°38'0 0.0
2014-Jul-14 12:34N 37°57' E 023°38'0 0.0
2014-Jul-14 11:34N 37°57' E 023°38'0 0.0
2014-Jul-14 10:33N 37°57' E 023°38'0 0.0
2014-Jul-14 09:34N 37°57' E 023°38'0 0.0
2014-Jul-14 08:33N 37°57' E 023°38'0 0.0
2014-Jul-14 07:33N 37°57' E 023°38'0 0.2
2014-Jul-14 06:33N 37°57' E 023°38'1515.3
2014-Jul-14 05:33N 37°42' E 023°45'2118.0
2014-Jul-14 04:22N 37°23' E 023°57'1718.0
2014-Jul-14 03:24N 37°08' E 024°07'1618.8
2014-Jul-14 02:32N 36°54' E 024°17'1313.1
2014-Jul-14 01:33N 36°43' E 024°27'6 6.1
2014-Jul-14 00:33N 36°45' E 024°34'1918.7
2014-Jul-13 23:33N 36°35' E 024°54'1918.7
2014-Jul-13 22:33N 36°30' E 025°16'10 9.6
2014-Jul-13 21:32N 36°23' E 025°26'4 4.6
2014-Jul-13 20:33N 36°20' E 025°22'  
Track history (hours):
 
Tides and Currents Weather Stations Pressure Air Temp Water Temp Dewpoint Dewpoint Depression Visibility Wind Speed Wind Dir Waves Ship Positions

Prevelis

Last reported at 2014-Jul-23 20:21 UTC. Time now 2014-Jul-24 13:04 UTC.
Position N 36°11' E 027°36'.

Length 143 m; draft 5.5 m.

Type: Passenger vessel. MMSI: 239297000.

Date/timePositionNaut miles runAvg speedWind from/ knotsBaromVisibWave heightAir tempDewpointWater temp
2014-Jul-23 20:21N 36°11' E 027°36'1518.8
2014-Jul-23 19:33N 35°59' E 027°25'6510.2
2014-Jul-23 13:13N 35°21' E 026°20'3212.1
2014-Jul-23 10:32N 35°22' E 025°41'26 8.2
2014-Jul-23 07:20N 35°21' E 025°09'1215.1
2014-Jul-23 06:33N 35°22' E 025°23'1918.6
2014-Jul-23 05:33N 35°22' E 025°46'2411.9
2014-Jul-23 03:33N 35°20' E 026°15'8810.9
2014-Jul-22 19:25N 36°14' E 027°41'5 0.6
2014-Jul-22 12:19N 36°11' E 027°37'81 8.2
2014-Jul-22 02:24N 36°09' E 025°57'1612.5
2014-Jul-22 01:08N 36°21' E 025°43'1418.4
2014-Jul-22 00:24N 36°19' E 025°26'5 5.5
2014-Jul-21 23:32N 36°23' E 025°26'2 1.7
2014-Jul-21 22:33N 36°23' E 025°24'1817.8
2014-Jul-21 21:33N 36°29' E 025°03'1817.9
2014-Jul-21 20:33N 36°41' E 024°47'518.2
2014-Jul-21 20:15N 36°46' E 024°43'1317.7
2014-Jul-21 19:30N 36°56' E 024°32'5717.9
2014-Jul-21 16:19N 37°38' E 023°44'1317.3
2014-Jul-21 15:33N 37°50' E 023°37'7 6.8
2014-Jul-21 14:33N 37°57' E 023°38'0 0.0
2014-Jul-21 13:33N 37°57' E 023°38'0 0.0
2014-Jul-21 12:33N 37°57' E 023°38'0 0.0
2014-Jul-21 11:33N 37°57' E 023°38'0 0.0
2014-Jul-21 10:33N 37°57' E 023°38'0 0.0
2014-Jul-21 09:34N 37°57' E 023°38'0 0.0
2014-Jul-21 08:33N 37°57' E 023°38'0 0.0
2014-Jul-21 07:33N 37°57' E 023°38'9 8.9
2014-Jul-21 06:33N 37°48' E 023°41'5418.0
2014-Jul-21 03:33N 37°00' E 024°13'2016.7
2014-Jul-21 02:20N 36°43' E 024°27'4 4.8
2014-Jul-21 01:33N 36°47' E 024°25'1817.3
2014-Jul-21 00:29N 36°39' E 024°46'1718.1
2014-Jul-20 23:33N 36°30' E 025°04'1717.0
2014-Jul-20 22:32N 36°23' E 025°23'2 1.2
2014-Jul-20 21:09N 36°23' E 025°25'5 7.8
2014-Jul-20 20:32N 36°19' E 025°27'1410.2
2014-Jul-20 19:09N 36°20' E 025°45'1016.5
2014-Jul-20 18:33N 36°12' E 025°39'1817.6
2014-Jul-20 17:33N 35°55' E 025°32'1918.1
2014-Jul-20 16:30N 35°38' E 025°22'104 4.9
2014-Jul-19 19:21N 36°01' E 027°27'9110.0
2014-Jul-19 10:16N 35°22' E 025°46'1318.4
2014-Jul-19 09:32N 35°22' E 025°29'1716.9
2014-Jul-19 08:32N 35°21' E 025°09'0 0.1
2014-Jul-19 07:33N 35°21' E 025°09'1817.6
2014-Jul-19 06:32N 35°35' E 025°22'1818.4
2014-Jul-19 05:33N 35°52' E 025°30'1918.5
2014-Jul-19 04:33N 36°09' E 025°39'1311.6
2014-Jul-19 03:28N 36°21' E 025°44'1718.2
2014-Jul-19 02:31N 36°20' E 025°23'4 3.5
2014-Jul-19 01:18N 36°23' E 025°26'0 0.1
2014-Jul-19 00:32N 36°23' E 025°26'1717.0
2014-Jul-18 23:34N 36°28' E 025°06'2018.1
2014-Jul-18 22:29N 36°38' E 024°45'1617.9
2014-Jul-18 21:33N 36°47' E 024°28'4 4.2
2014-Jul-18 20:33N 36°43' E 024°27'10 9.5
2014-Jul-18 19:28N 36°51' E 024°18'1718.1
2014-Jul-18 18:33N 37°05' E 024°08'3818.2
2014-Jul-18 16:26N 37°38' E 023°44'1517.2
2014-Jul-18 15:33N 37°53' E 023°37'4 4.4
2014-Jul-18 14:33N 37°57' E 023°38'0 0.0
2014-Jul-18 13:33N 37°57' E 023°38'0 0.0
2014-Jul-18 12:33N 37°57' E 023°38'0 0.0
2014-Jul-18 11:33N 37°57' E 023°38'0 0.0
2014-Jul-18 10:33N 37°57' E 023°38'0 0.0
2014-Jul-18 09:33N 37°57' E 023°38'0 0.0
2014-Jul-18 07:23N 37°57' E 023°38'2 0.8
2014-Jul-18 04:33N 37°55' E 023°37'6018.0
2014-Jul-18 01:13N 37°07' E 024°23'1818.5
2014-Jul-18 00:15N 36°54' E 024°39'1318.7
2014-Jul-17 23:33N 36°45' E 024°50'1918.4
2014-Jul-17 22:32N 36°33' E 025°08'1717.0
2014-Jul-17 21:32N 36°23' E 025°26'3 3.6
2014-Jul-17 20:33N 36°22' E 025°22'1515.4
2014-Jul-17 19:34N 36°20' E 025°40'5 4.8
2014-Jul-17 18:34N 36°19' E 025°46'1918.1
2014-Jul-17 17:29N 36°05' E 026°03'  
2014-Jul-15 02:31N 36°08' E 025°59'1713.0
2014-Jul-15 01:12N 36°21' E 025°45'1118.0
2014-Jul-15 00:33N 36°19' E 025°31'6 5.8
2014-Jul-14 23:32N 36°23' E 025°26'0 0.1
2014-Jul-14 22:33N 36°23' E 025°26'1615.9
2014-Jul-14 21:33N 36°31' E 025°08'1818.0
2014-Jul-14 20:33N 36°43' E 024°52'1818.0
2014-Jul-14 19:33N 36°55' E 024°35'5518.2
2014-Jul-14 16:33N 37°36' E 023°49'1717.3
2014-Jul-14 15:34N 37°50' E 023°37'7 7.2
2014-Jul-14 14:34N 37°57' E 023°38'0 0.0
2014-Jul-14 13:33N 37°57' E 023°38'0 0.0
2014-Jul-14 12:34N 37°57' E 023°38'0 0.0
2014-Jul-14 11:34N 37°57' E 023°38'0 0.0
2014-Jul-14 10:33N 37°57' E 023°38'0 0.0
2014-Jul-14 09:34N 37°57' E 023°38'0 0.0
2014-Jul-14 08:33N 37°57' E 023°38'0 0.0
2014-Jul-14 07:33N 37°57' E 023°38'0 0.2
2014-Jul-14 06:33N 37°57' E 023°38'1515.3
2014-Jul-14 05:33N 37°42' E 023°45'2118.0
2014-Jul-14 04:22N 37°23' E 023°57'1718.0
2014-Jul-14 03:24N 37°08' E 024°07'1618.8
2014-Jul-14 02:32N 36°54' E 024°17'1313.1
2014-Jul-14 01:33N 36°43' E 024°27'6 6.1
2014-Jul-14 00:33N 36°45' E 024°34'1918.7
2014-Jul-13 23:33N 36°35' E 024°54'1918.7
2014-Jul-13 22:33N 36°30' E 025°16'10 9.6
2014-Jul-13 21:32N 36°23' E 025°26'4 4.6
2014-Jul-13 20:33N 36°20' E 025°22'  

Dump ship's entire track history